Tiempo atmosférico en la estación meteorológica de Logroño Aeropuerto, La Rioja (353 m.)



Fecha
DESCASC
Temp. máxima en grados centígrados (hora)
DESCASC
Temp. mínima en grados centígrados (hora)
DESCASC
Temp. media en grados centígrados
DESCASC
Racha de viento máxima en m/sg (hora)
DESCASC
Velocidad máxima media en intervalos de 10 minutos(hora)
DESCASC
Precipitaciones diarias en mm
DESCASC
Precipitaciones de 00:00 a 06:00 en mm
DESCASC
Precipitaciones de 06:00 a 12:00 en mm
DESCASC
Precipitaciones de 12:00 a 18:00 en mm
DESCASC
Precipitaciones de 18:00 a 24:00 en mm
DESCASC
15-11-2018 18.4 (12:40) 10.8 (00:40) 14.6 10.28 (12:30) 7.5 (12:30) 0 0 0 0 0
14-11-2018 17.9 (15:20) 8.1 (02:40) 13 12.5 (14:00) 9.44 (14:00) 0 0 0 0 0
13-11-2018 18.2 (14:50) 9.1 (23:00) 13.7 6.11 (15:40) 4.72 (16:20) 0 0 0 0 0
12-11-2018 16.8 (15:10) 12.7 (23:20) 14.7 14.44 (02:20) 10.56 (03:20) 0.1 0 0 0.1 0
11-11-2018 18.6 (16:40) 7.1 (00:00) 12.9 11.39 (20:30) 8.33 (20:30) 0 0 0 0 0
10-11-2018 14.9 (15:00) 6.4 (00:00) 10.6 5 (12:30) 3.89 (15:30) 0.1 0.1 0 0 0
09-11-2018 15.2 (15:50) 6.7 (00:00) 10.9 9.72 (12:00) 5.28 (11:40) 0 0 0 0 0
08-11-2018 14.4 (16:30) 3.4 (00:00) 8.9 10.83 (14:50) 8.06 (15:20) 2.5 0 0 0 2.5
07-11-2018 17.3 (16:00) 4.9 (00:00) 11.1 10.83 (02:20) 7.5 (02:20) 0.1 0 0.1 0 0
06-11-2018 13.5 (12:10) 4.7 (00:00) 9.1 7.22 (07:10) 5 (12:30) 1.2 1.1 0.1 0 0
05-11-2018 11.9 (16:50) 4.6 (00:00) 8.2 10.28 (12:00) 6.94 (01:00) 6.8 0 5.7 1.1 0
04-11-2018 14.7 (15:50) -0.1 (00:00) 7.3 8.33 (16:00) 6.11 (16:10) 0 0 0 0 0
03-11-2018 15.4 (14:50) 2.9 (00:00) 9.1 8.33 (12:00) 5.28 (15:30) 0 0 0 0 0
02-11-2018 16.5 (14:40) 8.5 (00:00) 12.5 8.89 (16:10) 5 (16:10) 4.9 3.7 1.2 0 0
01-11-2018 15.2 (14:30) 7.3 (00:00) 11.3 7.78 (11:30) 4.17 (11:40) 0.3 0.3 0 0 0
31-10-2018 10.9 (13:10) 7.9 (00:00) 9.4 8.89 (00:20) 6.67 (00:20) 23.3 1.8 3.8 6.6 11.1
30-10-2018 10.7 (13:50) -0.2 (00:00) 5.2 13.89 (15:30) 8.61 (17:40) 0 0 0 0 0
29-10-2018 8.7 (16:20) 3.3 (00:00) 6 12.5 (12:50) 7.22 (02:50) 6.2 0.7 1.1 4.4 0
28-10-2018 9.7 (14:40) 4.7 (00:00) 7.2 10.83 (21:50) 6.39 (22:20) 0 0 0 0 0
27-10-2018 14.5 (00:00) 6 (00:00) 10.3 10.28 (16:00) 5.56 (11:40) 0.7 0 0.7 0 0
26-10-2018 18.8 (15:10) 6.7 (00:00) 12.7 5 (17:10) 3.33 (23:00) 0 0 0 0 0
25-10-2018 24.5 (17:10) 8.4 (00:00) 16.4 7.78 (12:00) 5 (12:30) 0 0 0 0 0
24-10-2018 21.3 (16:20) 8.8 (00:00) 15 9.72 (12:00) 6.39 (12:00) 0 0 0 0 0
23-10-2018 21 (16:40) 9.9 (00:00) 15.4 9.17 (11:50) 6.11 (11:40) 0 0 0 0 0
22-10-2018 20.2 (15:10) 11.7 (00:00) 16 9.17 (15:10) 5.28 (16:20) 0 0 0 0 0
21-10-2018 23.5 (17:10) 9 (00:00) 16.3 3.61 (19:40) 2.22 (19:40) 0 0 0 0 0
20-10-2018 22.8 (17:20) 12.7 (00:00) 17.7 5 (15:00) 3.61 (15:20) 2.2 2.2 0 0 0
19-10-2018 23.2 (16:40) 15.1 (00:00) 19.2 4.72 (23:30) 2.78 (18:40) 0 0 0 0 0
18-10-2018 19.7 (15:30) 10 (00:00) 14.9 7.78 (14:40) 5.28 (14:40) 0 0 0 0 0

Gráficas

Temp. máximas Temp. mínimas Temp. medias Precipitaciones Rachas de viento máximas Velocidades máximas media en intervalos de 10 minutos

Datos horarios

Fecha y hora oficial Temperatura (ºC) Velocidad del viento (km/h) Dirección del viento Racha (km/h) Dirección de racha Precipitación (mm) Presión (hPa) Tendencia (hPa) Humedad (%)
2018-11-16 23:00:00 10.8 6 Este 15 Este 0 976.5 0 95
2018-11-16 22:00:00 11.2 8 Este 17 Este 0 976.5 0 95
2018-11-16 21:00:00 10.3 10 Este 15 Este 0 976.5 0.2 95
2018-11-16 20:00:00 11.9 0 Calma 11 Este 0 976.5 0.4 92
2018-11-16 19:00:00 12.9 11 Este 21 Este 0 976.5 0.2 89
2018-11-16 18:00:00 14.1 13 Este 30 Este 0 976.3 -0.5 83
2018-11-16 17:00:00 15.8 19 Este 32 Sudeste 0 976.1 -1.2 76
2018-11-16 16:00:00 16.6 23 Este 33 Este 0 976.3 -1.4 74
2018-11-16 15:00:00 15.9 21 Este 37 Este 0 976.8 -1.4 77
2018-11-16 14:00:00 16.4 26 Este 39 Este 0 977.3 -1.3 74
2018-11-16 13:00:00 16.7 31 Este 39 Este 0 977.7 -0.8 72
2018-11-16 12:00:00 15.8 24 Este 30 Este 0 978.2 -0.1 76
2018-11-16 11:00:00 13.9 16 Este 22 Este 0 978.6 0.7 88
2018-11-16 10:00:00 13.1 11 Este 18 Este 0 978.5 0.8 93
2018-11-16 09:00:00 12.5 7 Este 17 Este 0 978.3 0.7 95
2018-11-16 08:00:00 12.3 12 Este 15 Este 0 977.9 0.3 96
2018-11-16 07:00:00 12.5 13 Este 17 Este 0 977.7 -0.1 95
2018-11-16 06:00:00 12.2 13 Nordeste 18 Este 0 977.6 -0.5 96
2018-11-16 05:00:00 12.2 11 Nordeste 15 Nordeste 0 977.6 -0.8 97
2018-11-16 04:00:00 12.1 6 Este 18 Este 0 977.8 -0.8 96
2018-11-16 03:00:00 12.6 15 Este 21 Este 0 978.1 -0.6 97
2018-11-16 02:00:00 12.4 3 Este 13 Este 0 978.4 -0.1 96
2018-11-16 01:00:00 12.6 9 Este 15 Este 0 978.6 0.2 97
2018-11-16 00:00:00 12.5 9 Este 13 Este 0 978.7 0.7 96
2018-11-15 23:00:00 12.2 9 Este 13 Este 0 978.5 1.2 96
2018-11-15 22:00:00 12.1 10 Este 17 Este 0 978.4 1.4 96
2018-11-15 21:00:00 11.6 14 Este 17 Este 0 978 1.4 95
2018-11-15 20:00:00 11.7 5 Este 15 Nordeste 0 977.3 1 94
2018-11-15 19:00:00 13.1 10 Este 15 Norte 0 977 0.8 87
2018-11-15 18:00:00 14.6 10 Este 30 Este 0 976.6 0.4 83
2018-11-15 17:00:00 16.5 23 Este 30 Este 0 976.3 -0.3 76
2018-11-15 16:00:00 16.8 17 Este 28 Este 0 976.2 -0.9 76
2018-11-15 15:00:00 16.9 21 Este 30 Este 0 976.2 -1.4 75
2018-11-15 14:00:00 16.8 18 Este 33 Este 0 976.6 -1.3 75
2018-11-15 13:00:00 17.3 23 Este 37 Este 0 977.1 -0.5 71
2018-11-15 12:00:00 17.1 23 Este 32 Este 0 977.6 0.1 74
2018-11-15 11:00:00 16.2 13 Este 21 Este 0 977.9 0.9 80
2018-11-15 10:00:00 13.9 10 Nordeste 15 Nordeste 0 977.6 0.9 92
2018-11-15 09:00:00 12.7 12 Este 17 Este 0 977.5 1 94
2018-11-15 08:00:00 12.3 7 Este 15 Sudeste 0 977 0.6 95
2018-11-15 07:00:00 12.1 12 Este 21 Nordeste 0 976.7 0 95
2018-11-15 06:00:00 12.5 14 Nordeste 24 Este 0 976.5 -0.5 95
2018-11-15 05:00:00 12.1 15 Este 22 Este 0 976.4 -0.9 96
2018-11-15 04:00:00 11 17 Este 18 Este 0 976.7 -1 96
2018-11-15 03:00:00 11.5 12 Nordeste 22 Nordeste 0 977 -1 95
2018-11-15 02:00:00 12.4 16 Este 26 Nordeste 0 977.3 -1 96
2018-11-15 01:00:00 12 16 Este 22 Este 0 977.7 -0.7 98
2018-11-15 00:00:00 11.6 9 Nordeste 13 Este 0 978 -0.3 96
2018-11-14 23:00:00 12 14 Este 18 Este 0 978.3 -0.1 94
2018-11-14 22:00:00 12.3 10 Este 17 Este 0 978.4 0 94
2018-11-14 21:00:00 12.8 7 Este 9 Este 0 978.3 0.1 89
2018-11-14 20:00:00 13.2 4 Este 17 Este 0 978.4 0.2 88
2018-11-14 19:00:00 14.1 13 Este 26 Este 0 978.4 -- 85
2018-11-14 18:00:00 14.9 17 Este 30 Este 0 978.2 -0.2 82
2018-11-14 17:00:00 16.3 23 Este 39 Este 0 978.2 -0.6 74
2018-11-14 16:00:00 -- -- -- -- -- -- -- -- --
2018-11-14 15:00:00 17.6 31 Este 45 Este 0 978.4 -2.4 72
2018-11-14 14:00:00 17.6 34 Este -- -- -- 978.8 -2.7 72
2018-11-14 13:00:00 16.3 28 Este 41 Este 0 979.7 -2.3 78
2018-11-14 12:00:00 15.6 27 Este 37 Este 0 980.8 -1.3 82
2018-11-14 11:00:00 13.1 19 Este 30 Este 0 981.5 -0.4 91
2018-11-14 10:00:00 10.9 9 Este 13 Este 0 982 0.3 96
2018-11-14 09:00:00 10.2 3 Nordeste 9 Sudeste 0 982.1 0.3 93
2018-11-14 08:00:00 10.1 2 Norte 8 Nordeste 0 981.9 0 95
2018-11-14 07:00:00 11 6 Sudeste 15 Sudeste 0 981.7 -0.5 95
2018-11-14 06:00:00 10.7 11 Sudeste 17 Sudeste 0 981.8 -0.8 97
2018-11-14 05:00:00 10.1 9 Este 11 Este 0 981.9 -0.8 98
2018-11-14 04:00:00 8.6 5 Este 9 Sudeste 0 982.2 -1 98
2018-11-14 03:00:00 9 4 Nordeste 8 Este 0 982.6 -0.9 98
2018-11-14 02:00:00 8.9 5 Este 9 Este 0 982.7 -0.9 97
2018-11-14 01:00:00 9.6 4 Este 13 Este 0 983.2 -0.3 94
2018-11-14 00:00:00 10.3 9 Este 13 Este 0 983.5 0.1 97
2018-11-13 23:00:00 9.1 9 Este 13 Este 0 983.6 0.4 95
2018-11-13 22:00:00 10.4 8 Este 13 Este 0 983.5 0.6 94
2018-11-13 21:00:00 10.4 3 Este 15 Este 0 983.4 0.8 92
2018-11-13 20:00:00 11.4 11 Este 15 Este 0 983.2 0.8 88
2018-11-13 19:00:00 13.3 11 Este 15 Este 0 982.9 0.8 86
2018-11-13 18:00:00 14.5 8 Este 17 Este 0 982.6 0.7 77
2018-11-13 17:00:00 17.3 13 Este 22 Este 0 982.4 0.1 67
2018-11-13 16:00:00 18 12 Este 22 Sudeste 0 982.1 -1.1 64
2018-11-13 15:00:00 18 11 Este 18 Este 0 981.9 -1.9 63
2018-11-13 14:00:00 17.6 8 Este 15 Este 0 982.3 -1.7 62
2018-11-13 13:00:00 16.6 5 Este 9 Este 0 983.2 -0.7 63
2018-11-13 12:00:00 15.3 5 Norte 9 Oeste 0 983.8 0.6 71
2018-11-13 11:00:00 13.8 6 Oeste 13 Oeste 0 984 1.5 80
2018-11-13 10:00:00 12.5 6 Oeste 11 Oeste 0 983.9 2 86
2018-11-13 09:00:00 11.9 6 Oeste 11 Oeste 0 983.2 1.8 89
2018-11-13 08:00:00 11.8 7 Oeste 11 Sudoeste 0 982.5 1.6 90
2018-11-13 07:00:00 11.8 7 Sudoeste 11 Oeste 0 981.9 1.2 91
2018-11-13 06:00:00 11.9 5 Oeste 9 Oeste 0 981.4 0.8 91
2018-11-13 05:00:00 12 3 Oeste 8 Oeste 0 980.9 0.9 92
2018-11-13 04:00:00 12.6 4 Oeste 9 Oeste 0 980.7 1 87
2018-11-13 03:00:00 12.7 6 Oeste 11 Oeste 0 980.6 1.8 87
2018-11-13 02:00:00 12.7 7 Oeste 15 Oeste 0 980 1.9 87
2018-11-13 01:00:00 12.9 10 Oeste 15 Oeste 0 979.7 2.2 88
2018-11-13 00:00:00 13.1 8 Oeste 13 Oeste 0 978.8 2.2 91
2018-11-12 23:00:00 13.1 5 Oeste 9 Noroeste 0 978.1 2.2 92
2018-11-12 22:00:00 13.2 4 Oeste 13 Sudoeste 0 977.5 2.5 92
2018-11-12 21:00:00 13.5 9 Oeste 13 Oeste 0 976.6 2.5 91
2018-11-12 20:00:00 13.4 8 Oeste 11 Oeste 0 975.9 2.4 92
2018-11-12 19:00:00 14.2 3 Sur 9 Nordeste 0 975 1.7 89
2018-11-12 18:00:00 14.7 0 Calma 9 Este 0 974.1 0.7 85
2018-11-12 17:00:00 15.3 8 Este 17 Este 0.1 973.5 0 84
2018-11-12 16:00:00 16.2 5 Norte 11 Este 0 973.3 -0.4 78
2018-11-12 15:00:00 16.5 8 Este 17 Este 0 973.4 -0.8 73
2018-11-12 14:00:00 15.9 13 Este 24 Este 0 973.5 -0.4 75
2018-11-12 13:00:00 15 15 Este 21 Este 0 973.7 0.8 79
2018-11-12 12:00:00 14.4 12 Sudeste 18 Este 0 974.2 2 82
2018-11-12 11:00:00 13.9 9 Sudoeste 17 Este 0 973.9 2.5 81
2018-11-12 10:00:00 13.9 12 Sudeste 30 Este 0 972.9 2.1 82
2018-11-12 09:00:00 13.3 14 Este 21 Este 0 972.2 2.4 85
2018-11-12 08:00:00 13.5 17 Este 33 Este 0 971.4 2 83
2018-11-12 07:00:00 14.4 26 Este 45 Sudeste 0 970.8 2.6 74
2018-11-12 06:00:00 14.2 26 Este 37 Sudeste 0 969.8 1.9 74
2018-11-12 05:00:00 13.5 17 Este 42 Sudeste 0 969.4 1.5 80
2018-11-12 04:00:00 14 31 Sudeste 52 Sudeste 0 968.2 0.3 77
2018-11-12 03:00:00 13.8 35 Sudeste 52 Sudeste 0 967.9 0.4 80
2018-11-12 02:00:00 14.1 30 Sudeste 48 Este 0 967.9 0 79
2018-11-12 01:00:00 14.9 32 Este 45 Este 0 967.9 0.1 76
2018-11-12 00:00:00 15.3 22 Este 33 Este 0 967.5 -0.4 76
2018-11-11 23:00:00 15.4 14 Este 39 Sudeste 0 967.9 -0.1 74
2018-11-11 22:00:00 16.7 27 Este 39 Sudeste 0 967.8 0 64
2018-11-11 21:00:00 17.3 25 Sudeste 41 Sudeste 0 967.9 0.3 59
2018-11-11 20:00:00 17.4 23 Sudeste 39 Sudeste 0 968 0.2 56
2018-11-11 19:00:00 17.4 14 Este 28 Sudeste 0 967.8 0.3 56
2018-11-11 18:00:00 17.8 14 Este 24 Este 0 967.6 -0.1 55
2018-11-11 17:00:00 18.2 17 Sudeste 39 Sur 0 967.8 -0.4 55
2018-11-11 16:00:00 17.6 12 Sudeste 24 Este 0 967.5 -1.9 64
2018-11-11 15:00:00 16.8 21 Este 30 Este 0 967.7 -2.9 72
2018-11-11 14:00:00 16.4 10 Este 15 Nordeste 0 968.2 -2.5 78
2018-11-11 13:00:00 14.4 4 Noroeste 9 Este 0 969.4 -1.3 84
2018-11-11 12:00:00 12.8 2 Sur 5 Sudoeste 0 970.6 0 89
2018-11-11 11:00:00 10.8 2 Oeste 8 Noroeste 0 970.7 1.8 95
2018-11-11 10:00:00 9.4 5 Oeste 13 Oeste 0 970.7 1.9 96
2018-11-11 09:00:00 8.2 9 Sudoeste 15 Oeste 0 970.6 1.8 97
2018-11-11 08:00:00 8.3 6 Sudoeste 17 Este 0 968.9 -0.1 98
2018-11-11 07:00:00 8.3 4 Oeste 11 Este 0 968.8 -0.5 98
2018-11-11 06:00:00 8.1 6 Este 13 Sudeste 0 968.8 -0.6 98
2018-11-11 05:00:00 9.2 6 Este 13 Este 0 969 -0.6 98
2018-11-11 04:00:00 8.1 3 Nordeste 11 Nordeste 0 969.3 -0.5 98
2018-11-11 03:00:00 8.4 8 Norte 9 Nordeste 0 969.4 -0.4 97
2018-11-11 02:00:00 8.7 4 Oeste 11 Norte 0 969.6 0.2 98
2018-11-11 01:00:00 8.4 7 Este 9 Este 0 969.8 0.5 97
2018-11-11 00:00:00 8.6 6 Nordeste 9 Nordeste 0 969.8 1.2 97
2018-11-10 23:00:00 8.9 8 Este 13 Sudeste 0 969.4 1.5 97
2018-11-10 22:00:00 9.3 7 Sudeste 11 Nordeste 0 969.3 2 96
2018-11-10 21:00:00 11.1 9 Sudeste 13 Sudeste 0 968.6 1.8 96
2018-11-10 20:00:00 10.5 7 Este 9 Este 0 967.9 1.3 93
2018-11-10 19:00:00 12.1 4 Este 13 Este 0 967.3 0.6 92
2018-11-10 18:00:00 13.3 6 Este 9 Nordeste 0 966.8 0 86
2018-11-10 17:00:00 14 4 Este 11 Este 0 966.6 -0.3 87
2018-11-10 16:00:00 14.5 5 Norte 17 Sudeste 0 966.7 -0.6 84
2018-11-10 15:00:00 14.9 7 Sudeste 13 Sudeste 0 966.8 -0.9 78
2018-11-10 14:00:00 14.3 9 Este 17 Este 0 966.9 -1 79
2018-11-10 13:00:00 13.6 8 Nordeste 18 Norte 0 967.3 -0.4 78
2018-11-10 12:00:00 13.7 9 Nordeste 15 Nordeste 0 967.7 0 76
2018-11-10 11:00:00 12.9 10 Nordeste 17 Nordeste 0 967.9 0.4 77
2018-11-10 10:00:00 11.1 7 Este 17 Sudeste 0 967.7 -0.3 83
2018-11-10 09:00:00 9.6 12 Este 17 Sudeste 0 967.7 -0.6 88
2018-11-10 08:00:00 8 8 Este 15 Este 0 967.5 -1.7 92
2018-11-10 07:00:00 6.5 4 Este 9 Este 0 968 -1.6 95
2018-11-10 06:00:00 7.6 6 Sudeste 13 Sudeste 0 968.3 -1.9 89
2018-11-10 05:00:00 7.5 4 Este 8 Este 0 969.2 -1.4 90
2018-11-10 04:00:00 7.8 4 Este 9 Sudeste 0 969.6 -1.4 87
2018-11-10 03:00:00 8.2 5 Este 13 Este 0 970.2 -1.1 87
2018-11-10 02:00:00 8.2 7 Este 11 Este 0 970.6 -1.2 85
2018-11-10 01:00:00 8.7 5 Este 11 Este 0.1 971 -1.2 84
2018-11-10 00:00:00 8.9 0 Calma 8 Este 0 971.3 -1 81
2018-11-09 23:00:00 9.5 2 Sudeste 8 Nordeste 0 971.8 -0.9 80
2018-11-09 22:00:00 9.7 9 Nordeste 13 Sudeste 0 972.2 -0.6 77
2018-11-09 21:00:00 11.6 5 Sur 9 Sudoeste 0 972.3 -0.1 67
2018-11-09 20:00:00 11.4 5 Sudoeste 22 Oeste 0 972.7 0.3 66
2018-11-09 19:00:00 11.8 8 Oeste 17 Oeste 0 972.8 0.7 61
2018-11-09 18:00:00 12.2 12 Oeste 21 Oeste 0 972.4 -0.2 57
2018-11-09 17:00:00 14 15 Oeste 28 Oeste 0 972.4 -0.8 49
2018-11-09 16:00:00 15.1 13 Oeste 28 Noroeste 0 972.1 -1.6 46
2018-11-09 15:00:00 13.9 17 Oeste 33 Oeste 0 972.6 -2 52
2018-11-09 14:00:00 13.5 16 Oeste 35 Oeste 0 973.2 -2.3 54
2018-11-09 13:00:00 13 15 Oeste 28 Sudoeste 0 973.7 -1.2 58
2018-11-09 12:00:00 12.6 19 Oeste 35 Oeste 0 974.6 -0.4 60
2018-11-09 11:00:00 10.4 14 Oeste 24 Oeste 0 975.5 1.1 72
2018-11-09 10:00:00 9 14 Oeste 22 Oeste 0 974.9 0.9 77
2018-11-09 09:00:00 7.9 8 Oeste 13 Oeste 0 975 1.5 82
2018-11-09 08:00:00 6.9 6 Oeste 17 Oeste 0 974.4 1.7 84
2018-11-09 07:00:00 7.5 11 Oeste 18 Oeste 0 974 1.7 81
2018-11-09 06:00:00 7.5 12 Oeste 18 Oeste 0 973.5 2.1 82
2018-11-09 05:00:00 8.1 11 Oeste 22 Oeste 0 972.7 2.1 80
2018-11-09 04:00:00 7.9 10 Oeste 18 Oeste 0 972.3 2.1 83
2018-11-09 03:00:00 7.6 12 Oeste 18 Oeste 0 971.4 0.9 83
2018-11-09 02:00:00 8.1 11 Oeste -- -- -- 970.6 -0.3 84
2018-11-09 01:00:00 8.9 14 Oeste 18 Oeste 0 970.2 -0.4 90
2018-11-09 00:00:00 8.8 9 Oeste 24 Oeste 0.1 970.5 1.1 92
2018-11-08 23:00:00 9.5 10 Oeste 17 Oeste 1.6 970.9 1.8 89
2018-11-08 22:00:00 10.4 14 Oeste 33 Oeste 0.8 970.6 1.4 83
2018-11-08 21:00:00 12.4 24 Sudeste 35 Sudeste 0 969.4 0.3 72
2018-11-08 20:00:00 11.4 15 Este 21 Este 0 969.1 -0.4 75
2018-11-08 19:00:00 11.8 13 Este 26 Este 0 969.2 -0.7 75
2018-11-08 18:00:00 12.5 19 Este 30 Este 0 969.1 -1.2 72
2018-11-08 17:00:00 13.9 24 Este 35 Este 0 969.5 -1.8 68
2018-11-08 16:00:00 13.7 26 Este 37 Este 0 969.9 -2.9 68
2018-11-08 15:00:00 12.4 27 Este 39 Este 0 970.3 -3.8 74
2018-11-08 14:00:00 11.8 26 Este 37 Este 0 971.3 -3.4 77
2018-11-08 13:00:00 10 23 Este 30 Este 0 972.8 -2.8 83
2018-11-08 12:00:00 9.1 17 Este 26 Este 0 974.1 -1.2 86
2018-11-08 11:00:00 8.1 15 Nordeste 22 Nordeste 0 974.7 -0.4 90
2018-11-08 10:00:00 7.1 10 Nordeste 17 Nordeste 0 975.6 0.1 95
2018-11-08 09:00:00 5.8 11 Este 15 Este 0 975.3 0.3 97
2018-11-08 08:00:00 5.2 12 Este 13 Este 0 975.1 -0.2 97
2018-11-08 07:00:00 4.9 5 Este 11 Este 0 975.5 -0.2 97
2018-11-08 06:00:00 4.2 9 Este 11 Este 0 975 -1 98
2018-11-08 05:00:00 3.9 3 Este 5 Este 0 975.3 -0.8 97
2018-11-08 04:00:00 3.8 3 Sudeste 5 Este 0 975.7 -0.5 97
2018-11-08 03:00:00 3.8 4 Sudoeste -- -- 0 976 -0.2 97
2018-11-08 02:00:00 4 0 Calma -- -- -- 976.1 -0.4 96
2018-11-08 01:00:00 4.6 2 Oeste 8 Sudoeste 0 976.2 0.1 94
2018-11-08 00:00:00 5 3 Noroeste 5 Oeste 0 976.2 0.9 94
2018-11-07 23:00:00 5.4 3 Este 8 Noroeste 0 976.5 2.1 91
2018-11-07 22:00:00 5.9 3 Noroeste 8 Noroeste 0 976.1 2.4 88
2018-11-07 21:00:00 7.5 4 Nordeste 11 Oeste 0 975.3 2.5 79
2018-11-07 20:00:00 9 2 Sudoeste 11 Oeste 0 974.4 2.5 75
2018-11-07 19:00:00 10.9 8 Sudoeste 11 Oeste 0 973.7 2.6 66
2018-11-07 18:00:00 13.1 8 Oeste 21 Oeste 0 972.8 2.1 58
2018-11-07 17:00:00 16.5 15 Oeste 30 Oeste 0 971.9 1.2 38
2018-11-07 16:00:00 17.3 12 Oeste 21 Oeste 0 971.1 0.8 35
2018-11-07 15:00:00 16 8 Sudeste 13 Sudeste 0 970.7 0.5 57
2018-11-07 14:00:00 15.2 0 Calma 15 Este 0 970.7 1.3 59
2018-11-07 13:00:00 15.3 7 Este 17 Este 0 970.3 2 63
2018-11-07 12:00:00 13.8 14 Este 22 Nordeste 0 970.2 2.6 71
2018-11-07 11:00:00 13.5 12 Nordeste -- -- -- 969.4 3.4 73
2018-11-07 10:00:00 11.5 8 Este 11 Este 0 968.3 3.2 82
2018-11-07 09:00:00 10.8 3 Norte 9 Sur 0.1 967.6 3.1 82
2018-11-07 08:00:00 10.2 3 Sur 11 Sudoeste 0 966 1.6 80
2018-11-07 07:00:00 10.6 3 Nordeste 21 Nordeste 0 965.1 0.2 76
2018-11-07 06:00:00 11.6 17 Este 26 Este 0 964.5 -0.9 72
2018-11-07 05:00:00 11.6 16 Este 32 Sudeste 0 964.4 -0.7 72
2018-11-07 04:00:00 12.6 16 Sudeste 32 Sudeste 0 964.9 -1.3 67
2018-11-07 03:00:00 12.7 16 Sudeste 39 Sudeste 0 965.4 -1.3 67
2018-11-07 02:00:00 12.7 25 Sudeste 37 Sudeste 0 965.1 -2 67
2018-11-07 01:00:00 9.5 7 Este 9 Sudeste 0 966.2 -1.3 87
2018-11-07 00:00:00 9.1 3 Este 8 Sudeste 0 966.7 -0.6 88
2018-11-06 23:00:00 9.3 3 Sudeste 8 Este 0 967.1 -0.2 88
2018-11-06 22:00:00 9.3 5 Sur 11 Este 0 967.5 -0.1 88
2018-11-06 21:00:00 9.3 3 Este 11 Nordeste 0 967.3 0 85
2018-11-06 20:00:00 9.8 9 Este 13 Este 0 967.3 -0.3 84
2018-11-06 19:00:00 10.6 7 Nordeste 9 Este 0 967.6 0.3 82
2018-11-06 18:00:00 11.5 4 Este 8 Noroeste 0 967.3 0.2 78
2018-11-06 17:00:00 11.9 6 Norte 15 Este 0 967.6 0.4 74
2018-11-06 16:00:00 12.5 10 Este 18 Este 0 967.3 0 69
2018-11-06 15:00:00 12.8 14 Este 18 Este 0 967.1 -0.3 65
2018-11-06 14:00:00 13.1 10 Sudeste 18 Este 0 967.2 -0.2 63
2018-11-06 13:00:00 12.9 13 Sudeste 26 Este 0 967.3 0.4 65
2018-11-06 12:00:00 13.3 8 Sudoeste 21 Noroeste 0 967.4 1 58
2018-11-06 11:00:00 10.9 13 Oeste 21 Oeste 0 967.4 1.7 71
2018-11-06 10:00:00 9.2 12 Oeste 21 Oeste 0 966.9 2 78
2018-11-06 09:00:00 7.8 10 Oeste 21 Oeste 0 966.4 2.2 84
2018-11-06 08:00:00 7.3 8 Oeste 26 Oeste 0 965.7 2.5 88
2018-11-06 07:00:00 7.6 14 Oeste 24 Oeste 0.1 964.9 2.4 87
2018-11-06 06:00:00 6.8 3 Sudoeste 9 Norte 0.1 964.2 1.9 97
2018-11-06 05:00:00 6.7 3 Este 8 Este 0 963.2 1.2 98
2018-11-06 04:00:00 6.5 2 Nordeste 5 Sudeste 0.3 962.5 0.1 98
2018-11-06 03:00:00 6.4 3 Oeste 8 Este 0.2 962.3 0.3 98
2018-11-06 02:00:00 6 3 Oeste 8 Oeste 0.4 962 0.2 98
2018-11-06 01:00:00 5.1 6 Oeste 11 Oeste 0.1 962.4 1 99
2018-11-06 00:00:00 4.7 5 Sudoeste 11 Sudoeste 0 962 0.6 98
2018-11-05 23:00:00 5.4 3 Sudoeste 8 Oeste 0 961.8 1.5 98
2018-11-05 22:00:00 5.9 2 Sur 9 Norte 0 961.4 1.3 97
2018-11-05 21:00:00 6.6 2 Oeste 8 Oeste 0 961.4 1.7 97
2018-11-05 20:00:00 7.2 3 Sudoeste 5 Oeste 0 960.3 0.8 96
2018-11-05 19:00:00 8.2 2 Nordeste 8 Norte 0 960.1 0.2 90
2018-11-05 18:00:00 10.3 3 Este 11 Este 0 959.7 0.1 85
2018-11-05 17:00:00 11.4 4 Sur 11 Sudeste 0 959.5 -0.2 80
2018-11-05 16:00:00 10.5 2 Sur 8 Sudoeste 0 959.9 0.6 86
2018-11-05 15:00:00 9.9 8 Oeste 17 Oeste 0.7 959.6 0.3 91
2018-11-05 14:00:00 10 12 Oeste 21 Este 0.4 959.7 -0.8 93
2018-11-05 13:00:00 9.8 11 Este 33 Este 0 959.3 -0.4 94
2018-11-05 12:00:00 9.3 24 Este 37 Este 1.4 959.3 -0.4 95
2018-11-05 11:00:00 8.4 6 Este 18 Este 2 960.5 1.2 94
2018-11-05 10:00:00 8.6 11 Este 28 Este 1.2 959.7 0.5 92
2018-11-05 09:00:00 8.9 17 Este 24 Este 0.4 959.7 0.3 87
2018-11-05 08:00:00 8.4 9 Nordeste 13 Nordeste 0.4 959.3 0.3 90
2018-11-05 07:00:00 8.8 5 Oeste 21 Este 0.3 959.2 -0.6 87
2018-11-05 06:00:00 9.8 14 Este 30 Este 0 959.4 -1 73
2018-11-05 05:00:00 9.8 15 Este 24 Este 0 959 -2.1 73
2018-11-05 04:00:00 9.5 12 Nordeste 28 Este 0 959.8 -1.6 73
2018-11-05 03:00:00 9.7 18 Este 28 Este 0 960.4 -1.9 69
2018-11-05 02:00:00 9.9 17 Este 32 Este 0 961.1 -1.6 67
2018-11-05 01:00:00 10.3 25 Este 33 Sudeste 0 961.4 -2.1 66
2018-11-05 00:00:00 9.5 15 Este 28 Este 0 962.3 -1.4 69
2018-11-04 23:00:00 9.4 17 Este 24 Este 0 962.7 -1.3 69
2018-11-04 22:00:00 10.3 18 Este 30 Este 0 963.5 -1 60
2018-11-04 21:00:00 10.1 13 Este 26 Este 0 963.7 -1.4 57
2018-11-04 20:00:00 11 14 Este 24 Nordeste 0 964 -1.6 57
2018-11-04 19:00:00 11.3 15 Este 22 Este 0 964.5 -1.5 60
2018-11-04 18:00:00 11.8 12 Este 26 Este 0 965.1 -1.9 63
2018-11-04 17:00:00 13.3 17 Este 28 Este 0 965.6 -2.5 53
2018-11-04 16:00:00 14.4 22 Este 30 Este 0 966 -3.6 47
2018-11-04 15:00:00 13.9 20 Este 28 Este 0 967 -3.9 51
2018-11-04 14:00:00 13.3 15 Este 26 Este 0 968.1 -3.6 52
2018-11-04 13:00:00 11.8 16 Este 22 Este 0 969.6 -3.1 53
2018-11-04 12:00:00 9.9 14 Este 21 Nordeste 0 970.9 -1.9 66
2018-11-04 11:00:00 7.4 7 Este 11 Este 0 971.7 -1.1 72
2018-11-04 10:00:00 4.5 0 Calma 4 Este 0 972.7 -0.3 87
2018-11-04 09:00:00 2.8 0 Calma 4 Este 0 972.8 -0.6 97
2018-11-04 08:00:00 0.5 3 Oeste 4 Oeste 0 972.8 -1 99
2018-11-04 07:00:00 0.4 0 Calma 5 Oeste 0 973 -1.2 99
2018-11-04 06:00:00 0.6 3 Oeste 5 Oeste 0 973.4 -1.4 98
2018-11-04 05:00:00 1.3 0 Calma 5 Sudoeste 0 973.8 -1.3 97
2018-11-04 04:00:00 1.3 0 Calma 9 Oeste 0 974.2 -1.4 97
2018-11-04 03:00:00 2.2 5 Oeste 8 Oeste 0 974.8 -1.6 98
2018-11-04 02:00:00 2.3 0 Calma -- -- 0 975.1 -1.7 97
2018-11-04 01:00:00 2.5 2 Oeste 8 Sudoeste 0 975.6 -1.3 95
2018-11-04 00:00:00 3.1 2 Sudoeste 5 Nordeste 0 976.4 -0.6 94
2018-11-03 23:00:00 3.4 2 Noroeste 5 Nordeste 0 976.8 -0.3 92
2018-11-03 22:00:00 5.2 3 Sudoeste 8 Oeste 0 976.9 -0.3 91
2018-11-03 21:00:00 6.3 5 Oeste 8 Oeste 0 977 -0.2 89
2018-11-03 20:00:00 7.8 3 Sudoeste 5 Oeste 0 977.1 -0.3 83
2018-11-03 19:00:00 10.1 0 Calma 11 Oeste 0 977.2 -0.5 70
2018-11-03 18:00:00 13.5 7 Oeste 18 Oeste 0 977.2 -0.8 53
2018-11-03 17:00:00 15 12 Oeste 22 Oeste 0 977.4 -1.2 46
2018-11-03 16:00:00 14 17 Oeste 28 Oeste 0 977.7 -1.8 44
2018-11-03 15:00:00 15.3 14 Oeste 30 Oeste 0 978 -2.6 41
2018-11-03 14:00:00 14.3 15 Oeste 30 Oeste 0 978.6 -2.6 46
2018-11-03 13:00:00 13.3 14 Oeste 28 Sudoeste 0 979.5 -2.4 54
2018-11-03 12:00:00 12 18 Oeste 30 Oeste 0 980.6 -1.9 61
2018-11-03 11:00:00 10.6 17 Oeste 26 Oeste 0 981.2 -1.2 68
2018-11-03 10:00:00 9 11 Oeste 18 Oeste 0 981.9 -0.7 77
2018-11-03 09:00:00 7.1 11 Oeste 21 Oeste 0 982.5 -0.6 84
2018-11-03 08:00:00 6.5 12 Oeste 18 Oeste 0 982.4 -0.6 86
2018-11-03 07:00:00 6.6 8 Oeste 15 Oeste 0 982.6 -0.8 86
2018-11-03 06:00:00 6.6 8 Oeste 15 Oeste 0 983.1 -0.6 88
2018-11-03 05:00:00 7.8 12 Oeste 21 Oeste 0 983 -0.8 82
2018-11-03 04:00:00 7.3 11 Oeste 15 Oeste 0 983.4 -0.8 85
2018-11-03 03:00:00 7.3 4 Norte 15 Oeste 0 983.7 -0.5 85
2018-11-03 02:00:00 8.2 12 Oeste 21 Sudoeste 0 983.8 -0.7 83
2018-11-03 01:00:00 8.5 12 Oeste 17 Oeste 0 984.2 -0.2 82
2018-11-03 00:00:00 9.1 10 Oeste 15 Oeste 0 984.2 0.2 80
2018-11-02 23:00:00 10 7 Oeste 11 Oeste 0 984.5 0.8 74
2018-11-02 22:00:00 9.9 6 Oeste 18 Oeste 0 984.4 1.4 72
2018-11-02 21:00:00 10.7 12 Oeste 21 Oeste 0 984 1.7 70
2018-11-02 20:00:00 11.4 7 Sudoeste 17 Noroeste 0 983.7 2.3 66
2018-11-02 19:00:00 12 11 Noroeste 24 Oeste 0 983 2.5 67
2018-11-02 18:00:00 13.1 9 Oeste 24 Noroeste 0 982.3 2.2 62
2018-11-02 17:00:00 14.7 10 Noroeste 32 Noroeste 0 981.4 1.3 57
2018-11-02 16:00:00 16 15 Noroeste 30 Noroeste 0 980.5 0.2 52
2018-11-02 15:00:00 15.9 13 Noroeste 24 Oeste 0 980.1 -0.2 60
2018-11-02 14:00:00 15.9 12 Noroeste 24 Noroeste 0 980.1 0.2 62
2018-11-02 13:00:00 15.2 15 Oeste 28 Oeste 0 980.3 1 68
2018-11-02 12:00:00 12.3 11 Oeste 21 Oeste 0 980.3 1.9 85
2018-11-02 11:00:00 10.8 8 Oeste 13 Oeste 0 979.9 2.7 91
2018-11-02 10:00:00 9.8 2 Oeste 4 Oeste 0 979.3 2.8 95
2018-11-02 09:00:00 9.3 2 Norte 4 Norte 0 978.4 2.6 97
2018-11-02 08:00:00 9 0 Calma 8 Sudeste 0.4 977.2 1.9 97
2018-11-02 07:00:00 8.9 2 Sur 5 Norte 0.8 976.5 1.2 97
2018-11-02 06:00:00 9 0 Calma 2 Sudeste 0.4 975.8 0.5 97
2018-11-02 05:00:00 8.9 0 Calma 4 Sur 0.8 975.3 -0.1 97
2018-11-02 04:00:00 8.7 4 Norte 5 Norte 0.6 975.3 -0.2 96
2018-11-02 03:00:00 8.7 2 Este 5 Este 0.8 975.3 -0.2 96
2018-11-02 02:00:00 8.6 5 Nordeste 8 Norte 0.4 975.4 -0.3 96
2018-11-02 01:00:00 8.7 4 Este 5 Este 0.7 975.5 -0.2 94
2018-11-02 00:00:00 8.7 0 Calma 8 Norte 0 975.5 -0.2 92
2018-11-01 23:00:00 8.3 4 Este 8 Este 0 975.7 0.7 93
2018-11-01 22:00:00 8.4 3 Oeste 11 Norte 0 975.7 1 93
2018-11-01 21:00:00 8.4 4 Sudoeste 8 Oeste 0 975.7 1.2 90
2018-11-01 20:00:00 9 0 Calma 4 Norte 0 975 1.2 85
2018-11-01 19:00:00 10.5 4 Sudoeste 8 Sudoeste 0 974.7 1.3 80
2018-11-01 18:00:00 12.2 -- -- -- -- 0 974.5 1.1 72
2018-11-01 17:00:00 13.5 5 Oeste 8 Oeste 0 973.8 0.7 61
2018-11-01 16:00:00 14.2 6 Oeste 13 Oeste 0 973.4 0 56
2018-11-01 15:00:00 14.4 10 Oeste 18 Oeste 0 973.4 0 53
2018-11-01 14:00:00 14.2 11 Oeste 24 Oeste 0 973.1 -0.1 55
2018-11-01 13:00:00 13.4 15 Oeste 26 Oeste 0 973.4 1 59
2018-11-01 12:00:00 12.7 14 Oeste 28 Oeste 0 973.4 1.9 63
2018-11-01 11:00:00 11.4 11 Oeste 17 Oeste 0 973.2 2.8 70
2018-11-01 10:00:00 9.8 4 Oeste 11 Oeste 0 972.4 2.8 84
2018-11-01 09:00:00 7.8 10 Oeste 15 Oeste 0 971.5 2.6 90
2018-11-01 08:00:00 7.4 9 Oeste 15 Oeste 0 970.4 2.1 94
2018-11-01 07:00:00 7.9 9 Oeste 13 Oeste 0 969.6 1.8 94
2018-11-01 06:00:00 7.9 6 Oeste 9 Oeste 0 968.9 1.7 94
2018-11-01 05:00:00 7.9 2 Oeste 8 Oeste 0 968.3 1.2 94
2018-11-01 04:00:00 8.1 6 Oeste 15 Oeste 0 967.8 0.9 94
2018-11-01 03:00:00 8.2 9 Oeste 13 Oeste 0 967.2 0.9 93
2018-11-01 02:00:00 8.3 5 Oeste 13 Oeste 0 967.1 1.4 96
2018-11-01 01:00:00 8.5 9 Oeste 13 Oeste 0.3 966.9 2 95
2018-11-01 00:00:00 8.3 9 Oeste 13 Oeste 0.8 966.3 2.3 95
2018-10-31 23:00:00 8.2 8 Oeste 15 Oeste 2.1 965.7 2.3 94
2018-10-31 22:00:00 8.4 11 Oeste 17 Oeste 2.9 964.9 2.4 93
2018-10-31 21:00:00 8.4 11 Oeste 18 Oeste 1.6 964 2.3 92
2018-10-31 20:00:00 8.3 10 Oeste 18 Oeste 1.8 963.4 2.4 92
2018-10-31 19:00:00 8.5 11 Oeste 15 Oeste 1.9 962.5 1.9 92
2018-10-31 18:00:00 9.2 9 Oeste 13 Oeste 1.4 961.7 1.5 92
2018-10-31 17:00:00 9.7 9 Oeste 13 Oeste 1.5 961 1.2 94
2018-10-31 16:00:00 9.7 5 Oeste 8 Oeste 2.1 960.6 0.8 94
2018-10-31 15:00:00 9.9 7 Oeste 13 Oeste 1.6 960.2 0.1 91
2018-10-31 14:00:00 10.7 8 Oeste 15 Oeste 0 959.8 -0.4 85
2018-10-31 13:00:00 10.8 4 Oeste 13 Oeste 0 959.8 -0.4 86
2018-10-31 12:00:00 10.7 8 Oeste 15 Oeste 0 960.1 -0.3 88
2018-10-31 11:00:00 9.7 10 Oeste 13 Oeste 0 960.2 0 93
2018-10-31 10:00:00 9.1 7 Oeste 9 Oeste 0.9 960.2 0.1 95
2018-10-31 09:00:00 8.6 0 Calma 4 Sudeste 1 960.4 0.3 96
2018-10-31 08:00:00 8.3 4 Sudeste 5 Sudeste 0.7 960.2 -0.1 96
2018-10-31 07:00:00 8.1 0 Calma 4 Este 1.2 960.1 -0.5 96
2018-10-31 06:00:00 8 0 Calma -- -- 1 960.1 -1 96
2018-10-31 05:00:00 7.9 9 Este 21 Nordeste 0.5 960.3 -1 95
2018-10-31 04:00:00 7.9 15 Nordeste 22 Nordeste 0.3 960.6 -0.8 95
2018-10-31 03:00:00 8.5 18 Nordeste 24 Este 0 961.1 -0.3 87
2018-10-31 02:00:00 8.6 17 Este 32 Este 0 961.3 -0.2 83
2018-10-31 01:00:00 8.7 20 Este 32 Este 0 961.4 -0.2 78
2018-10-31 00:00:00 9.2 20 Este 30 Este 0 961.4 0.2 73
2018-10-30 23:00:00 9.5 17 Este 30 Este 0 961.5 0.4 70
2018-10-30 22:00:00 9.3 13 Nordeste 26 Este 0 961.6 0.5 70
2018-10-30 21:00:00 8.7 17 Nordeste 28 Nordeste 0 961.2 0.9 72
2018-10-30 20:00:00 8.6 17 Este 28 Este 0 961.1 1 73
2018-10-30 19:00:00 9.1 18 Este 35 Este 0 961.1 1.3 69
2018-10-30 18:00:00 9.8 29 Este 42 Este 0 960.3 0.8 64
2018-10-30 17:00:00 9.6 22 Este 37 Este 0 960.1 0.4 66
2018-10-30 16:00:00 10 25 Este 50 Este 0 959.8 -0.3 62
2018-10-30 15:00:00 10.2 29 Este 45 Sudeste 0 959.5 -1 62
2018-10-30 14:00:00 10.7 23 Este 37 Este 0 959.7 -0.9 62
2018-10-30 13:00:00 9.3 28 Este 39 Este 0 960.1 -0.5 67
2018-10-30 12:00:00 7.8 16 Este 24 Este 0 960.5 0.2 73
2018-10-30 11:00:00 5.3 11 Este 17 Este 0 960.6 1 84
2018-10-30 10:00:00 3.4 10 Este 15 Este 0 960.6 1.3 90
2018-10-30 09:00:00 2.1 9 Este 11 Este 0 960.3 1.2 96
2018-10-30 08:00:00 0.8 9 Este 13 Este 0 959.6 0.6 97
2018-10-30 07:00:00 1 10 Este 11 Este 0 959.3 0.3 97
2018-10-30 06:00:00 0.5 7 Este 9 Este 0 959.1 -0.2 98
2018-10-30 05:00:00 0.2 -- -- -- -- 0 959 -0.3 98
2018-10-30 04:00:00 0 6 Este 8 Este 0 959 -0.5 97
2018-10-30 03:00:00 0 4 Nordeste 8 Nordeste 0 959.3 -0.5 92
2018-10-30 02:00:00 1.6 3 Nordeste 13 Oeste 0 959.3 -0.7 88
2018-10-30 01:00:00 3.3 6 Oeste 15 Oeste 0 959.5 -0.7 83
2018-10-30 00:00:00 3.6 11 Oeste 13 Oeste 0 959.8 -0.1 82
2018-10-29 23:00:00 4.1 10 Oeste 13 Oeste 0 960 0.3 81
2018-10-29 22:00:00 3.3 3 Norte 9 Oeste 0 960.2 0.6 84
2018-10-29 21:00:00 5.7 9 Oeste 21 Oeste 0 959.9 0.2 75
2018-10-29 20:00:00 5.8 15 Oeste 32 Oeste 0 959.7 0.6 73
2018-10-29 19:00:00 6.1 22 Oeste 41 Oeste 0 959.6 0.4 73
2018-10-29 18:00:00 6.5 24 Oeste 45 Oeste 0 959.7 0.2 74
2018-10-29 17:00:00 8.1 17 Oeste 41 Noroeste 0 959.1 0 65
2018-10-29 16:00:00 5.9 10 Oeste 39 Oeste 1.7 959.2 0.5 85
2018-10-29 15:00:00 5.7 9 Oeste 41 Noroeste 2.3 959.5 0.7 88
2018-10-29 14:00:00 6.9 21 Oeste 42 Oeste 0.4 959.1 -0.3 80
2018-10-29 13:00:00 7 21 Oeste 45 Sudoeste 0 958.7 -0.3 75
2018-10-29 12:00:00 7 22 Oeste 41 Oeste 0 958.8 -0.5 77
2018-10-29 11:00:00 6.2 22 Oeste 39 Oeste 0.2 959.4 0.1 81
2018-10-29 10:00:00 5.5 23 Oeste 35 Oeste 0.1 959 -0.4 86
2018-10-29 09:00:00 5.1 21 Oeste 32 Oeste 0.4 959.3 -0.3 88
2018-10-29 08:00:00 4.8 18 Oeste 37 Oeste 0.3 959.3 -0.3 89
2018-10-29 07:00:00 4.9 20 Oeste 35 Oeste 0.1 959.4 -0.1 87
2018-10-29 06:00:00 4.8 20 Oeste 37 Oeste 0.3 959.6 -0.6 88
2018-10-29 05:00:00 4.9 20 Oeste 41 Oeste 0.4 959.6 -0.7 86
2018-10-29 04:00:00 4.9 21 Oeste 41 Oeste 0 959.5 -1.1 85
2018-10-29 03:00:00 5 23 Oeste 42 Oeste 0 960.2 -0.9 83
2018-10-29 02:00:00 5.4 19 Oeste 37 Oeste 0 960.3 -1.3 79
2018-10-29 01:00:00 5.2 14 Oeste 32 Oeste 0 960.6 -1.1 76
2018-10-29 00:00:00 5.1 18 Oeste 32 Oeste 0 961.1 -1 76
2018-10-28 23:00:00 5 18 Oeste 39 Oeste 0 961.6 -0.5 75
2018-10-28 22:00:00 5 16 Oeste 39 Oeste 0 961.7 -0.4 77
2018-10-28 21:00:00 4.7 13 Oeste 37 Oeste 0 962.1 0 80
2018-10-28 20:00:00 5.3 19 Oeste 32 Oeste 0 962.1 0.3 79
2018-10-28 19:00:00 5.3 15 Oeste 32 Oeste 0 962.1 0.4 77
2018-10-28 18:00:00 6 13 Oeste 28 Oeste 0 962.1 0.8 73
2018-10-28 17:00:00 7.2 13 Oeste 26 Oeste 0 961.8 0.2 68
2018-10-28 16:00:00 7.2 13 Noroeste 37 Oeste 0 961.7 -0.2 67
2018-10-28 15:00:00 8.7 16 Noroeste 30 Oeste 0 961.3 -1 56
2018-10-28 14:00:00 8.5 14 Noroeste 33 Noroeste 0 961.6 -0.7 60
2018-10-28 13:00:00 8.2 17 Noroeste 32 Noroeste 0 961.9 -0.6 54
2018-10-28 12:00:00 7.9 13 Noroeste 30 Oeste 0 962.3 -0.1 54
2018-10-28 11:00:00 7.4 17 Oeste 28 Oeste 0 962.3 0.5 63
2018-10-28 10:00:00 6.9 11 Oeste 18 Oeste 0 962.5 1.1 64
2018-10-28 09:00:00 5.5 10 Oeste 15 Oeste 0 962.4 1 73
2018-10-28 08:00:00 5 10 Oeste 18 Oeste 0 961.8 0.6 73
2018-10-28 07:00:00 5.1 12 Oeste 22 Oeste 0 961.4 0.3 78
2018-10-28 06:00:00 5.4 13 Oeste 18 Oeste 0 961.4 0.4 75
2018-10-28 05:00:00 5.3 11 Oeste 18 Oeste 0 961.2 -0.1 80
2018-10-28 04:00:00 4.8 9 Oeste 21 Oeste 0 961.1 -0.6 83
2018-10-28 03:00:00 4.8 14 Oeste 22 Oeste 0 961 -1 82
2018-10-28 02:00:00 5.4 12 Oeste -- -- -- 961.3 -1 81
2018-10-28 01:00:00 5.4 14 Oeste 22 Oeste 0 962 -1 83
2018-10-28 00:00:00 6 11 Oeste 21 Oeste 0 962.3 -0.9 80
2018-10-27 23:00:00 6.3 10 Oeste 17 Sudoeste 0 962.5 -0.9 79
2018-10-27 22:00:00 6.8 10 Oeste 18 Oeste 0 963 -0.4 71
2018-10-27 21:00:00 7.2 12 Oeste 22 Noroeste 0 963.2 -0.3 72
2018-10-27 20:00:00 7.5 11 Oeste 15 Oeste 0 963.4 -1 70
2018-10-27 19:00:00 8.2 9 Oeste 24 Noroeste 0 963.4 -1.9 67
2018-10-27 18:00:00 8.4 9 Oeste 18 Oeste 0 963.5 -2.3 70
2018-10-27 17:00:00 8 12 Oeste 33 Oeste 0 964.4 -2.6 76
2018-10-27 16:00:00 9.2 19 Oeste 37 Oeste 0 965.3 -3 69
2018-10-27 15:00:00 10.7 15 Oeste 30 Sudoeste 0 965.8 -3.2 62
2018-10-27 14:00:00 11.3 13 Oeste 22 Oeste 0 967 -2.8 61
2018-10-27 13:00:00 9.8 15 Oeste 30 Oeste 0 968.3 -2.1 70
2018-10-27 12:00:00 9.7 17 Oeste 30 Oeste 0 969 -1.4 73
2018-10-27 11:00:00 8.6 14 Oeste 24 Oeste 0.1 969.8 -0.4 79
2018-10-27 10:00:00 8.3 10 Oeste 17 Oeste 0.4 970.4 0.3 81
2018-10-27 09:00:00 8.8 13 Oeste 28 Sudoeste 0 970.4 1.1 71
2018-10-27 08:00:00 9 14 Oeste 26 Oeste 0.2 970.2 1 75
2018-10-27 07:00:00 10.2 14 Oeste 35 Noroeste 0 970.1 0.3 71
2018-10-27 06:00:00 10.7 17 Oeste 28 Oeste 0 969.3 -1.1 85
2018-10-27 05:00:00 12 12 Oeste 18 Oeste 0 969.2 -1.5 73
2018-10-27 04:00:00 12.5 12 Oeste 24 Sudoeste 0 969.8 -1.2 71
2018-10-27 03:00:00 12.9 10 Oeste 17 Oeste 0 970.4 -0.7 67
2018-10-27 02:00:00 13.3 8 Oeste 24 Oeste 0 970.7 -0.5 71
2018-10-27 01:00:00 13.9 10 Oeste 26 Oeste 0 971 -0.1 69
2018-10-27 00:00:00 14.5 9 Oeste 18 Oeste 0 971.1 0 73
2018-10-26 23:00:00 14.6 12 Oeste 17 Oeste 0 971.2 -0.1 71
2018-10-26 22:00:00 14.5 6 Oeste 13 Oeste 0 971.1 0 72
2018-10-26 21:00:00 14.8 9 Oeste 15 Oeste 0 971.1 0.5 71
2018-10-26 20:00:00 15.3 6 Oeste 15 Oeste 0 971.3 0.9 68
2018-10-26 19:00:00 15.9 8 Oeste 17 Oeste 0 971.1 0.9 66
2018-10-26 18:00:00 16.8 8 Noroeste 18 Oeste 0 970.6 -0.2 61
2018-10-26 17:00:00 18.3 9 Oeste 15 Oeste 0 970.4 -1.3 48
2018-10-26 16:00:00 18.5 8 Oeste 15 Oeste 0 970.2 -2.2 47
2018-10-26 15:00:00 18.3 8 Oeste 17 Oeste 0 970.8 -2.1 46
2018-10-26 14:00:00 18.2 5 Oeste 13 Noroeste 0 971.7 -1.4 47
2018-10-26 13:00:00 15.7 6 Oeste 9 Sudoeste 0 972.4 -0.9 53
2018-10-26 12:00:00 14.2 7 Oeste 11 Oeste 0 972.9 0 60
2018-10-26 11:00:00 12.2 5 Oeste 13 Sudoeste 0 973.1 0.2 71
2018-10-26 10:00:00 8.5 4 Nordeste 8 Sudoeste 0 973.3 0.3 93
2018-10-26 09:00:00 7.4 6 Oeste 8 Oeste 0 972.9 0 96
2018-10-26 08:00:00 7.3 0 Calma 8 Oeste 0 972.9 -0.3 93
2018-10-26 07:00:00 8 6 Oeste 9 Oeste 0 973 -0.9 94
2018-10-26 06:00:00 8.6 6 Oeste 8 Oeste 0 972.9 -1.2 93
2018-10-26 05:00:00 8.4 4 Sudoeste -- -- 0 973.2 -1.5 94
2018-10-26 04:00:00 8.1 2 Sudoeste 5 Oeste 0 973.9 -1 94
2018-10-26 03:00:00 9.2 6 Oeste 9 Sudoeste 0 974.1 -0.6 93
2018-10-26 02:00:00 9.1 4 Oeste -- -- 0 974.7 0.1 93
2018-10-26 01:00:00 9.6 4 Oeste -- -- 0 974.9 0.3 91
2018-10-26 00:00:00 10.2 0 Calma 8 Sudoeste 0 974.7 0.4 83
2018-10-25 23:00:00 11.3 0 Calma 9 Oeste 0 974.6 0.4 78
2018-10-25 22:00:00 13.4 9 Oeste 11 Oeste 0 974.6 0.8 73
2018-10-25 21:00:00 14.9 9 Oeste 9 Sudoeste 0 974.3 0.4 67
2018-10-25 20:00:00 17 7 Oeste 13 Sudoeste 0 974.2 0.4 58
2018-10-25 19:00:00 20.9 6 Oeste 13 Oeste 0 973.8 -0.5 45
2018-10-25 18:00:00 23.9 8 Oeste 18 Oeste 0 973.9 -1.1 34
2018-10-25 17:00:00 24.3 9 Oeste 18 Noroeste 0 973.8 -2.2 30
2018-10-25 16:00:00 23.4 13 Oeste 22 Oeste 0 974.3 -2.8 36
2018-10-25 15:00:00 22.1 15 Oeste 24 Oeste 0 975 -2.6 40
2018-10-25 14:00:00 20.8 14 Oeste 28 Oeste 0 976 -2.1 44
2018-10-25 13:00:00 19.1 16 Oeste 26 Oeste 0 977.1 -1.3 48
2018-10-25 12:00:00 16.8 15 Oeste 28 Noroeste 0 977.6 -0.7 51
2018-10-25 11:00:00 13.4 15 Oeste 22 Oeste 0 978.1 0.1 56
2018-10-25 10:00:00 10.6 13 Oeste 22 Oeste 0 978.4 0.1 66
2018-10-25 09:00:00 8.6 14 Oeste 18 Oeste 0 978.3 -0.2 72
2018-10-25 08:00:00 8.6 14 Oeste 22 Oeste 0 978 -0.7 71
2018-10-25 07:00:00 8.8 13 Oeste 18 Oeste 0 978.3 -0.9 71
2018-10-25 06:00:00 8.8 10 Oeste 15 Oeste 0 978.5 -1.6 70
2018-10-25 05:00:00 9.5 11 Oeste 15 Oeste 0 978.7 -1.7 70
2018-10-25 04:00:00 10.1 11 Oeste 18 Oeste 0 979.2 -1.5 70
2018-10-25 03:00:00 10.7 11 Oeste 18 Oeste 0 980.1 -1 70
2018-10-25 02:00:00 11.5 10 Oeste 18 Oeste 0 980.4 -0.8 69
2018-10-25 01:00:00 12 11 Oeste 22 Oeste 0 980.7 -0.4 67
2018-10-25 00:00:00 13 15 Oeste 24 Oeste 0 981.1 -0.1 64
2018-10-24 23:00:00 12.9 12 Oeste 18 Oeste 0 981.2 -0.1 68
2018-10-24 22:00:00 14 11 Oeste 21 Oeste 0 981.1 -0.1 65
2018-10-24 21:00:00 15 10 Oeste 18 Oeste 0 981.2 0 63
2018-10-24 20:00:00 16.5 10 Oeste 18 Oeste 0 981.3 0 58
2018-10-24 19:00:00 18.7 13 Oeste 24 Oeste 0 981.2 -0.5 48
2018-10-24 18:00:00 20.6 17 Oeste 32 Oeste 0 981.2 -1.5 41
2018-10-24 17:00:00 21 20 Oeste 35 Oeste 0 981.3 -2.2 39
2018-10-24 16:00:00 20.7 19 Oeste 33 Oeste 0 981.7 -2.7 40
2018-10-24 15:00:00 19.7 19 Oeste 32 Oeste 0 982.7 -2.2 41
2018-10-24 14:00:00 18.4 21 Oeste 32 Oeste 0 983.5 -1.7 46
2018-10-24 13:00:00 16.7 20 Oeste 33 Oeste 0 984.4 -1 54
2018-10-24 12:00:00 14.8 23 Oeste 35 Oeste 0 984.9 -0.2 62
2018-10-24 11:00:00 13.2 15 Oeste 33 Oeste 0 985.2 0.2 69
2018-10-24 10:00:00 11.3 15 Oeste 24 Oeste 0 985.4 0.1 76
2018-10-24 09:00:00 9.5 11 Oeste 21 Oeste 0 985.1 -0.4 83
2018-10-24 08:00:00 9.2 13 Oeste 21 Oeste 0 985 -0.6 84
2018-10-24 07:00:00 9 12 Oeste 21 Noroeste 0 985.3 -0.9 86
2018-10-24 06:00:00 9.5 10 Oeste 22 Oeste 0 985.5 -0.9 85
2018-10-24 05:00:00 9.6 14 Oeste 21 Oeste 0 985.6 -1 84
2018-10-24 04:00:00 9.5 12 Oeste 22 Oeste 0 986.2 -0.2 84
2018-10-24 03:00:00 9.8 14 Oeste 32 Oeste 0 986.4 -0.1 83
2018-10-24 02:00:00 10.8 16 Oeste 24 Oeste 0 986.6 0 81
2018-10-24 01:00:00 11.2 17 Oeste 24 Oeste 0 986.4 0.3 81
2018-10-24 00:00:00 11.5 13 Oeste 17 Oeste 0 986.5 1 79
2018-10-23 23:00:00 12.5 10 Oeste 18 Oeste 0 986.6 1.6 74
2018-10-23 22:00:00 13.2 12 Oeste 21 Oeste 0 986.1 1.4 71
2018-10-23 21:00:00 13.9 12 Oeste 17 Oeste 0 985.5 0.7 67
2018-10-23 20:00:00 15.6 8 Oeste 18 Oeste 0 985 0.3 58
2018-10-23 19:00:00 17.7 9 Oeste 21 Noroeste 0 984.7 0.1 50
2018-10-23 18:00:00 19.9 12 Oeste 24 Oeste 0 984.8 -0.2 43
2018-10-23 17:00:00 20.8 12 Oeste 22 Oeste 0 984.7 -0.7 40
2018-10-23 16:00:00 20.5 14 Oeste 26 Oeste 0 984.6 -1.4 41
2018-10-23 15:00:00 19.8 17 Oeste 30 Oeste 0 985 -1.2 45
2018-10-23 14:00:00 18.6 18 Oeste 30 Oeste 0 985.4 -1.2 49
2018-10-23 13:00:00 17.5 18 Oeste 32 Oeste 0 986 -0.4 53
2018-10-23 12:00:00 16.5 22 Oeste 33 Oeste 0 986.2 0.1 58
2018-10-23 11:00:00 15.1 18 Oeste 30 Oeste 0 986.6 0.8 65
2018-10-23 10:00:00 12.2 12 Oeste 18 Oeste 0 986.4 0.8 74
2018-10-23 09:00:00 10.1 12 Oeste 18 Oeste 0 986.1 0.5 80
2018-10-23 08:00:00 10.2 13 Oeste 21 Oeste 0 985.8 0.3 78
2018-10-23 07:00:00 10.1 13 Oeste 21 Oeste 0 985.6 0.3 78
2018-10-23 06:00:00 10.2 14 Oeste 21 Oeste 0 985.6 0.2 80
2018-10-23 05:00:00 10.3 11 Oeste 18 Oeste 0 985.5 -0.2 80
2018-10-23 04:00:00 10.8 12 Oeste 18 Oeste 0 985.3 -0.8 77
2018-10-23 03:00:00 11.6 12 Oeste 24 Oeste 0 985.4 -1 75
2018-10-23 02:00:00 12 17 Oeste 26 Oeste 0 985.7 -0.6 74
2018-10-23 01:00:00 11.7 15 Oeste 24 Oeste 0 986.1 0.5 77
2018-10-23 00:00:00 11.8 12 Oeste 26 Oeste 0 986.4 1.4 74
2018-10-22 23:00:00 12.1 9 Oeste 24 Oeste 0 986.3 2 72
2018-10-22 22:00:00 12.8 15 Oeste 28 Oeste 0 985.6 2.4 68
2018-10-22 21:00:00 13.6 17 Oeste 30 Oeste 0 985 2.4 62
2018-10-22 20:00:00 14.7 15 Oeste 28 Oeste 0 984.3 2 58
2018-10-22 19:00:00 16.7 16 Oeste 30 Noroeste 0 983.2 1.2 48
2018-10-22 18:00:00 19.1 14 Noroeste 32 Oeste 0 982.6 0.3 37
2018-10-22 17:00:00 20 15 Oeste 33 Oeste 0 982.3 -0.3 39
2018-10-22 16:00:00 20 18 Oeste 33 Oeste 0 982 -1 44
2018-10-22 15:00:00 20.1 16 Oeste 32 Noroeste 0 982.3 -0.7 42
2018-10-22 14:00:00 19.5 18 Noroeste 30 Oeste 0 982.6 -0.2 47
2018-10-22 13:00:00 18.8 15 Oeste 32 Noroeste 0 983 0.4 49
2018-10-22 12:00:00 17.5 17 Oeste 30 Oeste 0 983 1.2 55
2018-10-22 11:00:00 16.4 14 Oeste 26 Oeste 0 982.8 1.5 65
2018-10-22 10:00:00 14.7 17 Oeste 26 Oeste 0 982.6 1.5 73
2018-10-22 09:00:00 12.9 17 Oeste 22 Oeste 0 981.8 1.2 81
2018-10-22 08:00:00 12.9 17 Oeste 26 Oeste 0 981.3 1 82
2018-10-22 07:00:00 12.6 17 Oeste 28 Oeste 0 981.1 1 85
2018-10-22 06:00:00 12.8 13 Oeste 18 Oeste 0 980.6 0.8 88
2018-10-22 05:00:00 12.6 7 Oeste 13 Oeste 0 980.3 0.5 93
2018-10-22 04:00:00 12.8 8 Oeste 13 Oeste 0 980.1 0.4 94
2018-10-22 03:00:00 13.8 7 Oeste 15 Oeste 0 979.8 0.2 91
2018-10-22 02:00:00 14.3 9 Oeste 17 Oeste 0 979.8 0.5 88
2018-10-22 01:00:00 14.2 9 Oeste 15 Oeste 0 979.7 0.8 88
2018-10-22 00:00:00 14.1 4 Oeste 9 Oeste 0 979.6 0.9 89
2018-10-21 23:00:00 15.1 7 Oeste 9 Oeste 0 979.3 0.8 85
2018-10-21 22:00:00 16 7 Oeste 11 Oeste 0 978.9 0.9 82
2018-10-21 21:00:00 16.5 6 Oeste 9 Sudoeste 0 978.7 0.5 82
2018-10-21 20:00:00 17.9 7 Oeste 13 Oeste 0 978.5 0 75
2018-10-21 19:00:00 20 5 Oeste 9 Oeste 0 978 -0.9 68
2018-10-21 18:00:00 23 6 Oeste 9 Oeste 0 978.2 -1.4 53
2018-10-21 17:00:00 23.4 4 Noroeste 9 Sudoeste 0 978.5 -1.8 50
2018-10-21 16:00:00 22.9 6 Sudoeste 11 Sudoeste 0 978.9 -2.1 52
2018-10-21 15:00:00 21.8 5 Oeste 11 Sudoeste 0 979.6 -2 59
2018-10-21 14:00:00 20.8 4 Sudoeste 11 Sudeste 0 980.3 -1.7 64
2018-10-21 13:00:00 19.1 4 Sur 8 Sur 0 981 -1.2 69
2018-10-21 12:00:00 16.2 5 Noroeste 11 Oeste 0 981.6 -0.3 81
2018-10-21 11:00:00 13.9 7 Oeste 11 Oeste 0 982 0.4 90
2018-10-21 10:00:00 11.7 7 Oeste -- -- 0 982.2 0.7 97
2018-10-21 09:00:00 9.6 3 Oeste 4 Oeste 0 981.9 0.6 98
2018-10-21 08:00:00 9 0 Calma 4 Noroeste 0 981.6 0 96
2018-10-21 07:00:00 9.8 3 Norte 9 Sudoeste 0 981.5 -0.2 96
2018-10-21 06:00:00 11 5 Sudoeste 5 Oeste 0 981.3 -0.4 97
2018-10-21 05:00:00 11.2 2 Noroeste 8 Sudoeste 0 981.6 -0.2 96
2018-10-21 04:00:00 11.7 4 Oeste 9 Sudoeste 0 981.7 0.1 96
2018-10-21 03:00:00 12 4 Oeste 5 Oeste 0 981.7 0.2 97
2018-10-21 02:00:00 12.3 3 Noroeste 5 Noroeste 0 981.8 0.6 96
2018-10-21 01:00:00 12.8 4 Norte 8 Noroeste 0 981.6 0.6 96
2018-10-21 00:00:00 13.2 3 Sudoeste 5 Oeste 0 981.5 0.7 95
2018-10-20 23:00:00 14 0 Calma 8 Norte 0 981.2 1 91
2018-10-20 22:00:00 15 2 Oeste 9 Norte 0 981 1 87
2018-10-20 21:00:00 16.3 2 Noroeste 11 Norte 0 980.8 1.1 82
2018-10-20 20:00:00 19.3 8 Sudeste 13 Sudeste 0 980.2 0.4 64
2018-10-20 19:00:00 20.8 10 Sudeste 17 Sudeste 0 980 -0.2 58
2018-10-20 18:00:00 22.4 11 Sudeste 17 Sudeste 0 979.7 -0.7 54
2018-10-20 17:00:00 22.5 12 Sudeste 18 Este 0 979.8 -1.4 53
2018-10-20 16:00:00 22.2 6 Este 17 Sudeste 0 980.2 -1.5 58
2018-10-20 15:00:00 21.4 10 Este 18 Este 0 980.4 -1.3 61
2018-10-20 14:00:00 20.1 8 Nordeste 13 Norte 0 981.2 -0.2 67
2018-10-20 13:00:00 18.3 5 Este 9 Nordeste 0 981.7 0.6 74
2018-10-20 12:00:00 18 6 Sudeste 11 Sudeste 0 981.7 1.3 81
2018-10-20 11:00:00 17.3 4 Este 8 Este 0 981.4 1.7 82
2018-10-20 10:00:00 15.5 0 Calma 9 Sur 0 981.1 1.8 93
2018-10-20 09:00:00 14.8 5 Este 5 Este 0 980.4 1.6 95
2018-10-20 08:00:00 14.9 0 Calma 4 Sudeste 0 979.7 1.1 95
2018-10-20 07:00:00 14.5 3 Noroeste 5 Oeste 0 979.3 0.8 95
2018-10-20 06:00:00 14.4 -- -- -- -- 0.3 978.8 0.5 95
2018-10-20 05:00:00 14.6 4 Sudoeste 11 Oeste 1.3 978.6 0.4 93
2018-10-20 04:00:00 14.9 3 Oeste 9 Oeste 0.5 978.5 0.7 91
2018-10-20 03:00:00 15.2 9 Oeste 11 Oeste 0 978.3 0.6 85
2018-10-20 02:00:00 16.2 8 Oeste 13 Oeste 0.1 978.2 0.7 76
2018-10-20 01:00:00 16.7 12 Oeste 15 Sudoeste 0 977.8 0.8 74
2018-10-20 00:00:00 16.9 10 Oeste 17 Oeste 0 977.7 1.1 74
2018-10-19 23:00:00 17.3 10 Oeste 13 Oeste 0 977.5 1.6 72
2018-10-19 22:00:00 17.3 8 Sudoeste 13 Oeste 0 977 2.2 73
2018-10-19 21:00:00 18.4 6 Oeste 11 Oeste 0 976.6 2.1 68
2018-10-19 20:00:00 19.1 10 Nordeste 15 Norte 0 975.9 1.4 65
2018-10-19 19:00:00 20.5 6 Nordeste 15 Nordeste 0 974.8 0.1 60
2018-10-19 18:00:00 21.5 6 Oeste 9 Sudoeste 0 974.5 -0.4 62
2018-10-19 17:00:00 22.3 7 Oeste 11 Oeste 0 974.5 -0.7 54
2018-10-19 16:00:00 21.6 8 Oeste 13 Sudeste 0 974.7 -0.5 57
2018-10-19 15:00:00 21.1 6 Sudeste 11 Sudeste 0 974.9 -0.4 60
2018-10-19 14:00:00 19.3 9 Sudoeste 13 Sudoeste 0 975.2 0.3 70
2018-10-19 13:00:00 19.1 8 Oeste 9 Oeste 0 975.2 1 69
2018-10-19 12:00:00 18.8 5 Sudoeste 13 Sudoeste 0 975.3 1.7 68
2018-10-19 11:00:00 18.2 7 Oeste 13 Sudoeste 0 974.9 1.7 73
2018-10-19 10:00:00 16.4 7 Oeste 11 Oeste 0 974.2 1.2 81
2018-10-19 09:00:00 15.7 6 Oeste 11 Oeste 0 973.6 0.2 83
2018-10-19 08:00:00 15.6 8 Sudoeste 13 Sudoeste 0 973.2 0.1 82
2018-10-19 07:00:00 15.3 9 Oeste 13 Oeste 0 973 -0.3 83
2018-10-19 06:00:00 15.8 7 Oeste 15 Oeste 0 973.4 -0.1 80
2018-10-19 05:00:00 16.3 9 Oeste 13 Sudoeste 0 973.1 -0.2 78
2018-10-19 04:00:00 16.1 8 Oeste 11 Oeste 0 973.3 -0.2 81
2018-10-19 03:00:00 16 6 Sudoeste 9 Oeste 0 973.5 0.1 80
2018-10-19 02:00:00 16.3 6 Sudoeste 9 Sudoeste 0 973.3 0.2 77
2018-10-19 01:00:00 16.1 5 Oeste 9 Oeste 0 973.5 0.4 79
2018-10-19 00:00:00 16 8 Oeste 11 Oeste 0 973.4 0.7 77
2018-10-18 23:00:00 16.3 6 Oeste 11 Oeste 0 973.1 0.9 77
2018-10-18 22:00:00 16.5 6 Sudoeste 9 Oeste 0 973.1 1.5 76
2018-10-18 21:00:00 16.9 7 Oeste 11 Oeste 0 972.7 1.6 73
2018-10-18 20:00:00 17.1 6 Oeste 11 Noroeste 0 972.2 1.2 72
2018-10-18 19:00:00 18.3 4 Oeste 17 Sudoeste 0 971.6 0.7 67
2018-10-18 18:00:00 18.7 9 Oeste 21 Oeste 0 971.1 -0.3 68
2018-10-18 17:00:00 19 12 Oeste 24 Oeste 0 971 -0.7 65
2018-10-18 16:00:00 19.5 16 Oeste 28 Sudoeste 0 970.9 -1.2 63
2018-10-18 15:00:00 19 17 Oeste 28 Oeste 0 971.4 -0.9 63
2018-10-18 14:00:00 17.6 13 Oeste 21 Oeste 0 971.7 -1.2 67
2018-10-18 13:00:00 17.4 13 Oeste 24 Oeste 0 972.1 -0.6 67
2018-10-18 12:00:00 17.4 15 Oeste 26 Oeste 0 972.3 0.1 68
2018-10-18 11:00:00 15.7 9 Oeste 18 Oeste 0 972.9 1.2 81
2018-10-18 10:00:00 13 10 Oeste 15 Oeste 0 972.7 1.2 90
2018-10-18 09:00:00 10.9 5 Oeste 9 Oeste 0 972.2 1.1 95
2018-10-18 08:00:00 10.4 6 Oeste 8 Oeste 0 971.7 0.5 94
2018-10-18 07:00:00 10.7 4 Oeste 8 Oeste 0 971.5 0 95
2018-10-18 06:00:00 11.6 4 Oeste 8 Oeste 0 971.1 -0.9 93
2018-10-18 05:00:00 12.5 3 Oeste 8 Noroeste 0 971.2 -0.8 90
2018-10-18 04:00:00 12.3 5 Oeste -- -- 0 971.5 -0.2 92
2018-10-18 03:00:00 12.4 3 Oeste 8 Oeste 0 972 0.3 91
2018-10-18 02:00:00 11.9 0 Calma 5 Oeste 0 972 0.2 93
2018-10-18 01:00:00 11.8 3 Este 8 Oeste 0 971.7 0.2 91
2018-10-18 00:00:00 12.3 4 Noroeste 8 Nordeste 0 971.7 0.4 92